Time;durP1;ratioP1;P1;durP2;ratioP2;P2;SDS_P1;SDS_P2;PMS_P1;PMS_P2;Temp;Humidity;BMP_temperature;BMP_pressure;BME280_temperature;BME280_humidity;BME280_pressure;Samples;Min_cycle;Max_cycle;Signal;HPM_P1;HPM_P2
2023/09/28 00:00:45;;;;;;;12.90;11.80;;;17.60;99.90;;;;;;5053758;28;20514;-74
2023/09/28 00:03:14;;;;;;;13.50;12.50;;;17.60;99.90;;;;;;5052229;28;20474;-74
2023/09/28 00:05:41;;;;;;;12.60;11.50;;;17.60;99.90;;;;;;5053459;28;20478;-74
2023/09/28 00:08:10;;;;;;;13.03;11.93;;;17.60;99.90;;;;;;5053511;28;20999;-75
2023/09/28 00:10:38;;;;;;;12.20;11.10;;;17.60;99.90;;;;;;5053436;28;20446;-74
2023/09/28 00:13:07;;;;;;;12.37;11.37;;;17.60;99.90;;;;;;5053568;28;20445;-75
2023/09/28 00:15:34;;;;;;;12.10;11.00;;;17.60;99.90;;;;;;5053373;28;20454;-74
2023/09/28 00:18:03;;;;;;;12.33;11.33;;;17.60;99.90;;;;;;5053152;28;20832;-74
2023/09/28 00:20:31;;;;;;;12.63;11.63;;;17.60;99.90;;;;;;5052983;28;20401;-74
2023/09/28 00:22:59;;;;;;;11.20;10.20;;;17.60;99.90;;;;;;5053658;28;20422;-74
2023/09/28 00:25:26;;;;;;;11.97;10.97;;;17.60;99.90;;;;;;5053369;28;20841;-74
2023/09/28 00:27:56;;;;;;;11.10;10.20;;;17.50;99.90;;;;;;5053639;28;20440;-74
2023/09/28 00:30:26;;;;;;;11.50;10.50;;;17.60;99.90;;;;;;5051918;28;20429;-72
2023/09/28 00:32:56;;;;;;;12.30;11.10;;;17.50;99.90;;;;;;5052025;28;20537;-72
2023/09/28 00:35:26;;;;;;;10.80;9.80;;;17.60;99.90;;;;;;5053325;28;20428;-72
2023/09/28 00:37:54;;;;;;;10.57;9.77;;;17.60;99.90;;;;;;5051964;28;20421;-72
2023/09/28 00:40:28;;;;;;;10.60;9.70;;;17.50;99.90;;;;;;5052018;28;20822;-72
2023/09/28 00:42:58;;;;;;;11.00;10.00;;;17.50;99.90;;;;;;5053289;28;20411;-72
2023/09/28 00:45:26;;;;;;;11.80;10.70;;;17.50;99.90;;;;;;5053313;28;20457;-72
2023/09/28 00:47:56;;;;;;;10.37;9.40;;;17.50;99.90;;;;;;5051731;28;20957;-72
2023/09/28 00:50:27;;;;;;;10.77;9.87;;;17.50;99.90;;;;;;5053380;28;20513;-73
2023/09/28 00:52:58;;;;;;;10.40;9.50;;;17.50;99.90;;;;;;5053246;28;20417;-74
2023/09/28 00:55:28;;;;;;;11.40;10.43;;;17.50;99.90;;;;;;5051882;28;20441;-74
2023/09/28 00:58:00;;;;;;;12.20;11.07;;;17.50;99.90;;;;;;5051726;28;20474;-75
2023/09/28 01:00:31;;;;;;;10.40;9.60;;;17.50;99.90;;;;;;5053190;28;20393;-74
2023/09/28 01:03:05;;;;;;;11.03;10.03;;;17.40;99.90;;;;;;5052987;28;20886;-74
2023/09/28 01:05:38;;;;;;;10.73;9.83;;;17.40;99.90;;;;;;5053210;28;20922;-74
2023/09/28 01:08:08;;;;;;;10.90;10.00;;;17.40;99.90;;;;;;5053122;28;20481;-74
2023/09/28 01:10:38;;;;;;;10.00;9.17;;;17.40;99.90;;;;;;5053168;28;20434;-74
2023/09/28 01:13:11;;;;;;;11.07;10.07;;;17.40;99.90;;;;;;5052518;28;20413;-74
2023/09/28 01:15:39;;;;;;;10.70;9.87;;;17.40;99.90;;;;;;5051789;28;20433;-74
2023/09/28 01:18:09;;;;;;;9.80;9.00;;;17.40;99.90;;;;;;5053019;28;20404;-74
2023/09/28 01:20:38;;;;;;;10.80;9.90;;;17.40;99.90;;;;;;5052693;28;20441;-75
2023/09/28 01:23:07;;;;;;;9.90;9.10;;;17.40;99.90;;;;;;5052708;28;20449;-74
2023/09/28 01:25:35;;;;;;;9.87;8.87;;;17.40;99.90;;;;;;5051345;28;20465;-74
2023/09/28 01:28:03;;;;;;;10.77;9.77;;;17.40;99.90;;;;;;5052576;28;20490;-74
2023/09/28 01:30:31;;;;;;;9.87;9.07;;;17.30;99.90;;;;;;5055922;28;20811;-74
2023/09/28 01:32:58;;;;;;;10.53;9.70;;;17.30;99.90;;;;;;5056331;28;20440;-74
2023/09/28 01:35:28;;;;;;;11.63;10.53;;;17.30;99.90;;;;;;5056177;28;20432;-75
2023/09/28 01:38:02;;;;;;;12.10;10.90;;;17.30;99.90;;;;;;5055201;28;20456;-74
2023/09/28 01:40:31;;;;;;;10.23;9.43;;;17.30;99.90;;;;;;5054927;28;20414;-74
2023/09/28 01:42:59;;;;;;;9.87;9.07;;;17.30;99.90;;;;;;5056108;28;20930;-74
2023/09/28 01:45:27;;;;;;;10.07;9.27;;;17.30;99.90;;;;;;5054808;28;20471;-74
2023/09/28 01:47:54;;;;;;;10.90;9.90;;;17.30;99.90;;;;;;5055772;28;20543;-74
2023/09/28 01:50:22;;;;;;;11.47;10.47;;;17.30;99.90;;;;;;5056335;28;20434;-74
2023/09/28 01:52:49;;;;;;;10.57;9.67;;;17.30;99.90;;;;;;5055843;28;20445;-74
2023/09/28 01:55:18;;;;;;;10.00;9.20;;;17.30;99.90;;;;;;5054860;28;20941;-74
2023/09/28 01:57:47;;;;;;;10.63;9.80;;;17.20;99.90;;;;;;5055778;28;20905;-74
2023/09/28 02:00:17;;;;;;;10.43;9.30;;;17.30;99.90;;;;;;5056010;28;20434;-75
2023/09/28 02:02:46;;;;;;;9.30;8.60;;;17.30;99.90;;;;;;5055684;28;20845;-74
2023/09/28 02:05:17;;;;;;;10.33;9.43;;;17.30;99.90;;;;;;5055770;28;20428;-74
2023/09/28 02:07:46;;;;;;;10.73;9.83;;;17.30;99.90;;;;;;5054340;28;20429;-74
2023/09/28 02:10:14;;;;;;;10.10;9.20;;;17.30;99.90;;;;;;5055710;28;20412;-74
2023/09/28 02:12:44;;;;;;;9.67;8.87;;;17.30;99.90;;;;;;5057822;28;20427;-75
2023/09/28 02:15:14;;;;;;;11.13;10.23;;;17.30;99.90;;;;;;5060439;28;20463;-75
2023/09/28 02:17:43;;;;;;;9.80;9.03;;;17.30;99.90;;;;;;5058377;28;20405;-75
2023/09/28 02:20:15;;;;;;;9.83;9.03;;;17.30;99.90;;;;;;5058146;28;20471;-75
2023/09/28 02:22:44;;;;;;;10.00;9.03;;;17.30;99.90;;;;;;5056553;28;20496;-75
2023/09/28 02:25:15;;;;;;;9.63;8.73;;;17.30;99.90;;;;;;5056771;28;20435;-75
2023/09/28 02:27:44;;;;;;;9.63;8.80;;;17.30;99.90;;;;;;5054646;28;20445;-74
2023/09/28 02:30:15;;;;;;;10.50;9.60;;;17.30;99.90;;;;;;5056346;28;20521;-74
2023/09/28 02:32:44;;;;;;;9.70;8.77;;;17.30;99.90;;;;;;5056382;28;20824;-74
2023/09/28 02:35:14;;;;;;;10.87;9.93;;;17.30;99.90;;;;;;5055338;28;20773;-74
2023/09/28 02:37:44;;;;;;;9.50;8.70;;;17.30;99.90;;;;;;5055357;28;20413;-74
2023/09/28 02:40:12;;;;;;;9.40;8.50;;;17.30;99.90;;;;;;5055762;28;20426;-74
2023/09/28 02:42:41;;;;;;;9.53;8.80;;;17.30;99.90;;;;;;5053797;28;20431;-74
2023/09/28 02:45:12;;;;;;;11.47;9.20;;;17.30;99.90;;;;;;5055307;28;20519;-74
2023/09/28 02:47:42;;;;;;;9.83;8.93;;;17.30;99.90;;;;;;5053643;28;20449;-74
2023/09/28 02:50:11;;;;;;;9.87;9.03;;;17.30;99.90;;;;;;5053808;28;20440;-74
2023/09/28 02:52:40;;;;;;;10.43;9.53;;;17.30;99.90;;;;;;5054114;28;20417;-74
2023/09/28 02:55:12;;;;;;;9.60;8.80;;;17.30;99.90;;;;;;5053466;28;20448;-75
2023/09/28 02:57:41;;;;;;;9.63;8.83;;;17.30;99.90;;;;;;5055058;28;20404;-74
2023/09/28 03:00:18;;;;;;;10.57;9.57;;;17.30;99.90;;;;;;5053456;28;20453;-74
2023/09/28 03:02:47;;;;;;;9.27;8.47;;;17.30;99.90;;;;;;5053609;28;20417;-74
2023/09/28 03:05:16;;;;;;;9.50;8.70;;;17.30;99.90;;;;;;5054522;28;20877;-74
2023/09/28 03:07:45;;;;;;;9.10;8.23;;;17.30;99.90;;;;;;5054918;28;20401;-74
2023/09/28 03:10:13;;;;;;;9.57;8.53;;;17.30;99.90;;;;;;5054269;28;20472;-74
2023/09/28 03:12:44;;;;;;;9.57;8.77;;;17.30;99.90;;;;;;5054746;28;20512;-74
2023/09/28 03:15:12;;;;;;;11.70;10.60;;;17.30;99.90;;;;;;5054801;28;20429;-74
2023/09/28 03:17:41;;;;;;;10.50;9.60;;;17.30;99.90;;;;;;5054506;28;20981;-74
2023/09/28 03:20:13;;;;;;;10.40;9.50;;;17.30;99.90;;;;;;5054299;28;20426;-74
2023/09/28 03:22:43;;;;;;;10.87;9.87;;;17.30;99.90;;;;;;5054337;28;21047;-74
2023/09/28 03:25:16;;;;;;;12.40;11.10;;;17.30;99.90;;;;;;5054203;28;20443;-74
2023/09/28 03:27:45;;;;;;;10.70;9.80;;;17.30;99.90;;;;;;5052858;28;20400;-74
2023/09/28 03:30:14;;;;;;;9.27;8.47;;;17.30;99.90;;;;;;5054331;28;20493;-74
2023/09/28 03:32:42;;;;;;;10.50;9.50;;;17.30;99.90;;;;;;5054134;28;20484;-74
2023/09/28 03:35:11;;;;;;;9.13;8.30;;;17.40;99.90;;;;;;5052645;28;20490;-74
2023/09/28 03:37:41;;;;;;;8.17;7.47;;;17.40;99.90;;;;;;5053961;28;20408;-74
2023/09/28 03:40:11;;;;;;;9.03;8.33;;;17.40;99.90;;;;;;5053925;28;20925;-74
2023/09/28 03:42:46;;;;;;;9.10;8.30;;;17.40;99.90;;;;;;5054100;28;20895;-74
2023/09/28 03:45:16;;;;;;;9.10;8.37;;;17.40;99.90;;;;;;5053809;28;20432;-74
2023/09/28 03:47:45;;;;;;;8.57;7.87;;;17.40;99.90;;;;;;5053819;28;20942;-74
2023/09/28 03:50:15;;;;;;;9.60;8.70;;;17.40;99.90;;;;;;5054243;28;20444;-74
2023/09/28 03:52:44;;;;;;;8.60;7.90;;;17.40;99.90;;;;;;5053375;28;20483;-74
2023/09/28 03:55:14;;;;;;;9.00;8.20;;;17.40;99.90;;;;;;5053656;28;20428;-74
2023/09/28 03:57:42;;;;;;;9.00;8.30;;;17.40;99.90;;;;;;5052659;28;20431;-74
2023/09/28 04:00:14;;;;;;;9.83;8.80;;;17.40;99.90;;;;;;5053627;28;20408;-74
2023/09/28 04:02:45;;;;;;;9.87;9.07;;;17.40;99.90;;;;;;5053571;28;20397;-74
2023/09/28 04:05:20;;;;;;;8.53;7.83;;;17.40;99.90;;;;;;5053443;28;20549;-74
2023/09/28 04:07:49;;;;;;;8.83;8.13;;;17.40;99.90;;;;;;5053581;28;20495;-74
2023/09/28 04:10:17;;;;;;;9.40;8.60;;;17.40;99.90;;;;;;5053355;28;20520;-74
2023/09/28 04:12:50;;;;;;;9.07;8.20;;;17.40;99.90;;;;;;5053583;28;20390;-74
2023/09/28 04:15:18;;;;;;;9.70;8.83;;;17.40;99.90;;;;;;5052061;28;20444;-74
2023/09/28 04:17:46;;;;;;;10.83;9.13;;;17.40;99.90;;;;;;5053620;28;20938;-74
2023/09/28 04:20:14;;;;;;;8.77;7.97;;;17.40;99.90;;;;;;5053526;28;20962;-74
2023/09/28 04:22:44;;;;;;;13.37;12.07;;;17.40;99.90;;;;;;5053177;28;20418;-74
2023/09/28 04:25:14;;;;;;;9.60;8.80;;;17.40;99.90;;;;;;5051906;28;20445;-74
2023/09/28 04:27:42;;;;;;;8.20;7.50;;;17.40;99.90;;;;;;5051923;28;20488;-74
2023/09/28 04:30:12;;;;;;;9.20;8.30;;;17.40;99.90;;;;;;5053700;28;20490;-74
2023/09/28 04:32:40;;;;;;;8.57;7.80;;;17.40;99.90;;;;;;5053198;28;20488;-74
2023/09/28 04:35:10;;;;;;;8.53;7.83;;;17.40;99.90;;;;;;5053217;28;20486;-74
2023/09/28 04:37:39;;;;;;;8.60;7.90;;;17.40;99.90;;;;;;5053344;28;20397;-74
2023/09/28 04:40:10;;;;;;;9.03;8.30;;;17.40;99.90;;;;;;5053187;28;20438;-74
2023/09/28 04:42:39;;;;;;;9.00;8.20;;;17.40;99.90;;;;;;5053467;28;20393;-74
2023/09/28 04:45:09;;;;;;;9.27;8.37;;;17.40;99.90;;;;;;5053013;28;20447;-74
2023/09/28 04:47:38;;;;;;;9.30;8.50;;;17.40;99.90;;;;;;5053363;28;20389;-74
2023/09/28 04:50:08;;;;;;;9.63;8.73;;;17.40;99.90;;;;;;5053220;28;20802;-74
2023/09/28 04:52:36;;;;;;;9.20;8.40;;;17.40;99.90;;;;;;5053013;28;20914;-74
2023/09/28 04:55:07;;;;;;;12.40;11.20;;;17.40;99.90;;;;;;5052940;28;20440;-74
2023/09/28 04:57:37;;;;;;;10.87;9.97;;;17.40;99.90;;;;;;5053849;28;20483;-74
2023/09/28 05:00:08;;;;;;;9.70;8.90;;;17.40;99.90;;;;;;5053100;28;20404;-74
2023/09/28 05:02:36;;;;;;;9.20;8.40;;;17.40;99.90;;;;;;5053164;28;20404;-74
2023/09/28 05:05:09;;;;;;;9.00;8.10;;;17.30;99.90;;;;;;5055829;28;20432;-74
2023/09/28 05:07:37;;;;;;;9.10;8.30;;;17.40;99.90;;;;;;5055531;28;20516;-74
2023/09/28 05:10:08;;;;;;;9.43;8.60;;;17.30;99.90;;;;;;5056547;28;20505;-74
2023/09/28 05:12:37;;;;;;;9.80;8.90;;;17.30;99.90;;;;;;5056826;28;20396;-74
2023/09/28 05:15:08;;;;;;;9.80;9.00;;;17.30;99.90;;;;;;5056632;28;20444;-75
2023/09/28 05:17:36;;;;;;;8.83;8.03;;;17.30;99.90;;;;;;5056961;28;20853;-75
2023/09/28 05:20:05;;;;;;;11.37;9.70;;;17.30;99.90;;;;;;5056823;28;20411;-75
2023/09/28 05:22:35;;;;;;;9.13;8.27;;;17.30;99.90;;;;;;5055374;28;20446;-75
2023/09/28 05:25:03;;;;;;;8.77;7.97;;;17.20;99.90;;;;;;5056533;28;20469;-74
2023/09/28 05:27:31;;;;;;;8.43;7.73;;;17.30;99.90;;;;;;5056601;28;20474;-75
2023/09/28 05:30:01;;;;;;;8.73;8.03;;;17.30;99.90;;;;;;5056260;28;20469;-75
2023/09/28 05:32:29;;;;;;;8.90;8.00;;;17.20;99.90;;;;;;5056695;28;20794;-74
2023/09/28 05:34:57;;;;;;;9.17;8.40;;;17.20;99.90;;;;;;5056221;28;20461;-75
2023/09/28 05:37:26;;;;;;;9.27;8.57;;;17.20;99.90;;;;;;5056304;28;20442;-74
2023/09/28 05:39:55;;;;;;;9.73;8.80;;;17.10;99.90;;;;;;5056189;28;20472;-74
2023/09/28 05:42:23;;;;;;;10.17;8.90;;;17.10;99.90;;;;;;5056122;28;20507;-74
2023/09/28 05:44:52;;;;;;;8.73;7.93;;;17.10;99.90;;;;;;5056276;28;20428;-74
2023/09/28 05:47:21;;;;;;;9.67;8.87;;;17.10;99.90;;;;;;5056165;28;21035;-74
2023/09/28 05:49:52;;;;;;;9.83;8.97;;;17.10;99.90;;;;;;5055883;28;20960;-74
2023/09/28 05:52:20;;;;;;;9.33;8.53;;;17.10;99.90;;;;;;5057430;28;20433;-74
2023/09/28 05:54:49;;;;;;;9.87;8.97;;;17.10;99.90;;;;;;5056149;28;20443;-74
2023/09/28 05:57:19;;;;;;;9.43;8.73;;;17.10;99.90;;;;;;5055849;28;20434;-74
2023/09/28 05:59:48;;;;;;;9.97;8.87;;;17.10;99.90;;;;;;5056466;28;20816;-74
2023/09/28 06:02:16;;;;;;;10.03;7.97;;;17.10;99.90;;;;;;5055733;28;20441;-74
2023/09/28 06:04:46;;;;;;;9.20;8.37;;;17.10;99.90;;;;;;5056278;28;20458;-74
2023/09/28 06:07:14;;;;;;;10.37;9.47;;;17.10;99.90;;;;;;5055975;28;20440;-74
2023/09/28 06:09:43;;;;;;;8.87;8.07;;;17.10;99.90;;;;;;5055658;28;20442;-74
2023/09/28 06:12:11;;;;;;;9.80;8.80;;;17.10;99.90;;;;;;5054528;28;20446;-75
2023/09/28 06:14:39;;;;;;;9.53;8.63;;;17.10;99.90;;;;;;5055303;28;20460;-74
2023/09/28 06:17:07;;;;;;;9.43;8.63;;;17.10;99.90;;;;;;5055642;28;20983;-74
2023/09/28 06:19:35;;;;;;;9.53;8.63;;;17.10;99.90;;;;;;5055489;28;20413;-74
2023/09/28 06:22:23;;;;;;;10.93;10.00;;;17.10;99.90;;;;;;5055638;28;20458;-74
2023/09/28 06:24:51;;;;;;;10.10;9.13;;;17.10;99.90;;;;;;5055746;28;20436;-74
2023/09/28 06:27:19;;;;;;;9.73;8.83;;;17.10;99.90;;;;;;5054109;28;20446;-74
2023/09/28 06:29:52;;;;;;;12.00;9.40;;;17.10;99.90;;;;;;5055179;28;20491;-74
2023/09/28 06:32:21;;;;;;;10.10;9.20;;;17.10;99.90;;;;;;5054070;28;20947;-74
2023/09/28 06:34:50;;;;;;;10.67;9.77;;;17.10;99.90;;;;;;5055325;28;20433;-74
2023/09/28 06:37:19;;;;;;;12.00;10.67;;;17.10;99.90;;;;;;5055606;28;20401;-74
2023/09/28 06:39:48;;;;;;;11.93;10.93;;;17.20;99.90;;;;;;5055733;28;20438;-74
2023/09/28 06:42:16;;;;;;;10.90;9.80;;;17.20;99.90;;;;;;5055408;28;20405;-74
2023/09/28 06:45:03;;;;;;;11.13;10.13;;;17.20;99.90;;;;;;5055578;28;20450;-74
2023/09/28 06:47:32;;;;;;;10.37;9.47;;;17.20;99.90;;;;;;5055538;28;20898;-74
2023/09/28 06:50:20;;;;;;;10.33;9.40;;;17.30;99.90;;;;;;5055249;28;20809;-74
2023/09/28 06:52:49;;;;;;;11.40;10.40;;;17.30;99.90;;;;;;5055010;28;20459;-74
2023/09/28 06:55:18;;;;;;;12.03;10.93;;;17.30;99.90;;;;;;5055062;28;20985;-74
2023/09/28 06:57:46;;;;;;;10.60;9.60;;;17.30;99.90;;;;;;5054963;28;20482;-74
2023/09/28 07:00:16;;;;;;;12.40;11.40;;;17.30;99.90;;;;;;5053527;28;20917;-74
2023/09/28 07:02:47;;;;;;;11.47;10.53;;;17.30;99.90;;;;;;5055354;28;20385;-71
2023/09/28 07:05:16;;;;;;;12.27;11.03;;;17.40;99.90;;;;;;5053300;28;20987;-71
2023/09/28 07:07:46;;;;;;;11.90;10.90;;;17.40;99.90;;;;;;5054947;28;20413;-71
2023/09/28 07:10:14;;;;;;;11.70;10.67;;;17.40;99.90;;;;;;5054656;28;20409;-71
2023/09/28 07:12:44;;;;;;;10.30;9.30;;;17.40;99.90;;;;;;5054782;28;20499;-71
2023/09/28 07:15:12;;;;;;;11.17;10.27;;;17.50;99.90;;;;;;5054897;28;20471;-71
2023/09/28 07:17:41;;;;;;;12.40;11.10;;;17.50;99.90;;;;;;5054676;28;20409;-71
2023/09/28 07:20:09;;;;;;;11.27;10.07;;;17.60;99.90;;;;;;5054967;28;20774;-71
2023/09/28 07:22:38;;;;;;;12.40;11.20;;;17.60;99.90;;;;;;5054451;28;20456;-72
2023/09/28 07:25:09;;;;;;;10.77;9.87;;;17.70;99.90;;;;;;5054702;28;20433;-71
2023/09/28 07:27:37;;;;;;;10.70;9.80;;;17.70;99.90;;;;;;5052360;28;20893;-71
2023/09/28 07:30:08;;;;;;;12.67;11.37;;;17.80;99.90;;;;;;5054154;28;20492;-71
2023/09/28 07:32:36;;;;;;;11.53;10.40;;;17.80;99.90;;;;;;5054288;28;20482;-71
2023/09/28 07:35:05;;;;;;;11.90;10.80;;;17.90;99.90;;;;;;5054709;28;20439;-71
2023/09/28 07:37:34;;;;;;;11.17;10.27;;;18.00;99.90;;;;;;5054356;28;20442;-72
2023/09/28 07:40:02;;;;;;;11.53;10.43;;;18.10;99.90;;;;;;5054452;28;20434;-72
2023/09/28 07:42:31;;;;;;;10.40;9.50;;;18.10;99.90;;;;;;5054423;28;20442;-71
2023/09/28 07:44:59;;;;;;;10.23;9.23;;;18.20;99.90;;;;;;5053951;28;20454;-71
2023/09/28 07:47:28;;;;;;;10.33;9.33;;;18.30;99.90;;;;;;5054017;28;20499;-71
2023/09/28 07:49:58;;;;;;;11.13;10.10;;;18.30;99.90;;;;;;5053929;28;20408;-71
2023/09/28 07:52:27;;;;;;;9.80;8.83;;;18.50;99.90;;;;;;5054175;28;20897;-71
2023/09/28 07:54:56;;;;;;;9.27;8.23;;;18.50;99.90;;;;;;5054076;28;20512;-71
2023/09/28 07:57:24;;;;;;;11.40;9.00;;;18.60;99.90;;;;;;5053971;28;20515;-71
2023/09/28 07:59:58;;;;;;;8.87;8.07;;;18.70;99.90;;;;;;5054363;28;20388;-71
2023/09/28 08:02:28;;;;;;;10.07;9.00;;;18.80;99.90;;;;;;5054508;28;20408;-71
2023/09/28 08:04:56;;;;;;;8.77;7.90;;;18.90;99.90;;;;;;5053687;28;20457;-71
2023/09/28 08:07:30;;;;;;;7.63;6.77;;;18.90;99.90;;;;;;5054162;28;20426;-71
2023/09/28 08:09:58;;;;;;;8.27;6.97;;;19.00;99.90;;;;;;5054105;28;20418;-71
2023/09/28 08:12:27;;;;;;;7.63;6.97;;;19.10;99.90;;;;;;5052843;28;20469;-71
2023/09/28 08:14:55;;;;;;;8.17;7.37;;;19.20;99.90;;;;;;5053825;28;20465;-71
2023/09/28 08:17:23;;;;;;;10.03;8.37;;;19.20;99.90;;;;;;5055124;28;20438;-71
2023/09/28 08:19:53;;;;;;;8.67;7.80;;;19.30;99.90;;;;;;5060703;28;20466;-72
2023/09/28 08:22:22;;;;;;;9.93;7.33;;;19.40;99.90;;;;;;5055979;28;20445;-74
2023/09/28 08:24:50;;;;;;;6.93;6.23;;;19.50;99.90;;;;;;5056629;28;20462;-74
2023/09/28 08:27:18;;;;;;;8.83;6.63;;;19.50;99.90;;;;;;5056309;28;20927;-74
2023/09/28 08:29:47;;;;;;;9.40;6.80;;;19.60;99.90;;;;;;5055170;28;20430;-74
2023/09/28 08:32:15;;;;;;;13.60;7.10;;;19.70;99.90;;;;;;5055022;28;20520;-74
2023/09/28 08:34:43;;;;;;;7.40;6.17;;;19.70;99.90;;;;;;5054567;28;21047;-74
2023/09/28 08:37:13;;;;;;;6.53;5.90;;;19.80;99.90;;;;;;5054877;28;20495;-73
2023/09/28 08:39:41;;;;;;;7.00;5.30;;;19.90;99.90;;;;;;5057988;28;20444;-73
2023/09/28 08:42:13;;;;;;;8.63;5.50;;;19.90;99.90;;;;;;5057864;28;20988;-74
2023/09/28 08:44:42;;;;;;;7.50;5.37;;;20.00;99.90;;;;;;5057591;28;20450;-73
2023/09/28 08:47:17;;;;;;;7.10;5.63;;;20.00;99.90;;;;;;5057370;28;20441;-73
2023/09/28 08:49:49;;;;;;;6.67;4.80;;;20.10;99.90;;;;;;5056431;28;20499;-74
2023/09/28 08:52:19;;;;;;;9.87;4.30;;;20.20;99.90;;;;;;5057796;28;20454;-74
2023/09/28 08:54:48;;;;;;;7.70;4.63;;;20.20;99.90;;;;;;5058144;28;20453;-74
2023/09/28 08:57:17;;;;;;;6.50;4.53;;;20.20;99.90;;;;;;5057202;28;20474;-74
2023/09/28 08:59:46;;;;;;;7.63;3.83;;;20.30;99.90;;;;;;5057144;28;20438;-73
2023/09/28 09:02:15;;;;;;;8.13;4.30;;;20.30;99.90;;;;;;5057715;28;20437;-74
2023/09/28 09:04:45;;;;;;;9.03;5.10;;;20.30;99.90;;;;;;5057255;28;20508;-74
2023/09/28 09:07:13;;;;;;;7.50;4.13;;;20.40;99.90;;;;;;5057060;28;20461;-74
2023/09/28 09:09:45;;;;;;;11.20;4.10;;;20.40;99.90;;;;;;5057034;28;20430;-74
2023/09/28 09:12:15;;;;;;;12.00;5.20;;;20.50;99.90;;;;;;5057696;28;20965;-74
2023/09/28 09:14:43;;;;;;;10.17;4.50;;;20.50;99.90;;;;;;5057416;28;20992;-74
2023/09/28 09:17:11;;;;;;;12.60;4.80;;;20.60;99.90;;;;;;5057689;28;20444;-74
2023/09/28 09:19:42;;;;;;;7.40;4.90;;;20.60;99.90;;;;;;5059169;28;20841;-74
2023/09/28 09:22:25;;;;;;;8.50;4.17;;;20.70;99.90;;;;;;5058537;28;20971;-74
2023/09/28 09:24:58;;;;;;;10.20;5.30;;;20.70;99.90;;;;;;5057893;28;21026;-74
2023/09/28 09:27:28;;;;;;;10.50;4.43;;;20.70;99.90;;;;;;5057446;28;20430;-75
2023/09/28 09:30:04;;;;;;;8.93;5.00;;;20.70;99.90;;;;;;5056385;28;20437;-74
2023/09/28 09:32:32;;;;;;;8.33;4.67;;;20.80;99.90;;;;;;5057639;28;20494;-74
2023/09/28 09:35:02;;;;;;;7.43;4.10;;;20.80;99.90;;;;;;5057312;28;20489;-74
2023/09/28 09:37:32;;;;;;;12.70;4.70;;;20.80;99.90;;;;;;5057818;28;20910;-75
2023/09/28 09:40:11;;;;;;;9.63;4.93;;;20.90;99.90;;;;;;5057586;28;20984;-74
2023/09/28 09:42:41;;;;;;;10.13;5.40;;;20.90;99.90;;;;;;5057305;28;20418;-75
2023/09/28 09:45:12;;;;;;;9.70;5.23;;;21.00;99.90;;;;;;5057263;28;20462;-74
2023/09/28 09:47:45;;;;;;;7.17;4.10;;;21.00;99.90;;;;;;5056446;28;20875;-75
2023/09/28 09:50:16;;;;;;;9.33;4.77;;;21.10;99.90;;;;;;5055180;28;20442;-74
2023/09/28 09:52:45;;;;;;;9.47;4.30;;;21.20;99.90;;;;;;5057489;28;20458;-75
2023/09/28 09:55:14;;;;;;;7.33;5.10;;;21.20;99.90;;;;;;5056861;28;20485;-74
2023/09/28 09:57:44;;;;;;;9.20;3.87;;;21.20;99.90;;;;;;5057205;28;20958;-74
2023/09/28 10:00:15;;;;;;;9.77;4.40;;;21.20;99.90;;;;;;5057104;28;20841;-75
2023/09/28 10:02:46;;;;;;;5.43;3.93;;;21.30;99.90;;;;;;5057378;28;20426;-75
2023/09/28 10:05:16;;;;;;;9.90;6.00;;;21.30;99.90;;;;;;5056894;28;20461;-75
2023/09/28 10:07:45;;;;;;;8.00;3.97;;;21.40;99.90;;;;;;5056709;28;20888;-75
2023/09/28 10:10:18;;;;;;;9.27;5.07;;;21.40;99.90;;;;;;5056767;28;20488;-74
2023/09/28 10:12:48;;;;;;;6.67;3.93;;;21.40;99.90;;;;;;5056816;28;20536;-74
2023/09/28 10:15:17;;;;;;;6.10;4.67;;;21.40;99.90;;;;;;5056342;28;20481;-73
2023/09/28 10:17:46;;;;;;;7.80;3.87;;;21.40;99.90;;;;;;5056353;28;20434;-75
2023/09/28 10:20:15;;;;;;;8.10;4.23;;;21.40;99.90;;;;;;5056785;28;20434;-74
2023/09/28 10:22:45;;;;;;;9.27;5.00;;;21.40;99.90;;;;;;5056814;28;20772;-75
2023/09/28 10:25:15;;;;;;;7.47;4.53;;;21.40;99.90;;;;;;5055065;28;20505;-74
2023/09/28 10:27:45;;;;;;;7.27;4.40;;;21.40;99.90;;;;;;5056010;28;20529;-74
2023/09/28 10:30:18;;;;;;;7.30;4.53;;;21.40;99.90;;;;;;5055638;28;20422;-74
2023/09/28 10:32:46;;;;;;;5.73;3.83;;;21.50;99.90;;;;;;5053974;28;20486;-74
2023/09/28 10:35:29;;;;;;;7.00;4.07;;;21.50;99.90;;;;;;5055113;28;20826;-75
2023/09/28 10:38:20;;;;;;;8.30;4.00;;;21.50;99.90;;;;;;5055385;28;20422;-74
2023/09/28 10:41:02;;;;;;;7.00;4.17;;;21.50;99.90;;;;;;5055077;28;20425;-75
2023/09/28 10:43:34;;;;;;;9.00;4.30;;;21.60;99.90;;;;;;5054949;28;20919;-75
2023/09/28 10:46:04;;;;;;;10.57;4.47;;;21.60;99.90;;;;;;5054956;28;20958;-75
2023/09/28 10:48:33;;;;;;;7.37;4.30;;;21.60;99.90;;;;;;5054952;28;20442;-74
2023/09/28 10:51:03;;;;;;;8.33;4.30;;;21.70;99.90;;;;;;5054925;28;20434;-75
2023/09/28 10:53:31;;;;;;;6.77;4.17;;;21.70;99.90;;;;;;5055348;28;20573;-75
2023/09/28 10:55:59;;;;;;;8.50;5.30;;;21.80;99.90;;;;;;5054722;28;20544;-75
2023/09/28 10:58:28;;;;;;;4.67;4.00;;;21.80;99.90;;;;;;5055090;28;20460;-75
2023/09/28 11:00:58;;;;;;;7.80;4.97;;;21.90;99.90;;;;;;5054208;28;20442;-75
2023/09/28 11:03:27;;;;;;;6.60;4.97;;;22.00;99.90;;;;;;5054206;28;20480;-75
2023/09/28 11:05:55;;;;;;;7.57;4.77;;;22.00;99.90;;;;;;5055503;28;20541;-74
2023/09/28 11:08:23;;;;;;;7.63;5.17;;;22.00;99.90;;;;;;5054493;28;20537;-75
2023/09/28 11:10:55;;;;;;;10.60;5.33;;;22.00;99.90;;;;;;5053144;28;21021;-75
2023/09/28 11:13:23;;;;;;;7.40;5.30;;;22.00;99.90;;;;;;5054319;28;20541;-75
2023/09/28 11:15:52;;;;;;;6.97;5.73;;;22.00;99.90;;;;;;5054232;28;20542;-75
2023/09/28 11:18:23;;;;;;;6.93;5.97;;;22.10;99.90;;;;;;5054291;28;20800;-75
2023/09/28 11:20:52;;;;;;;9.07;5.43;;;22.10;99.90;;;;;;5054529;28;20444;-75
2023/09/28 11:23:20;;;;;;;7.20;5.37;;;22.10;99.90;;;;;;5054520;28;20422;-75
2023/09/28 11:25:48;;;;;;;7.93;5.60;;;22.20;99.90;;;;;;5054059;28;20453;-75
2023/09/28 11:28:17;;;;;;;6.53;5.57;;;22.20;99.90;;;;;;5054073;28;20445;-74
2023/09/28 11:30:46;;;;;;;7.53;5.37;;;22.20;99.90;;;;;;5054092;28;20969;-75
2023/09/28 11:33:14;;;;;;;9.57;5.87;;;22.30;99.90;;;;;;5054498;28;20478;-75
2023/09/28 11:35:46;;;;;;;7.87;5.63;;;22.30;99.90;;;;;;5053844;28;20462;-75
2023/09/28 11:38:15;;;;;;;5.53;5.03;;;22.20;99.90;;;;;;5052905;28;20953;-75
2023/09/28 11:40:45;;;;;;;9.30;6.73;;;22.20;99.90;;;;;;5054202;28;20488;-75
2023/09/28 11:43:14;;;;;;;5.30;4.80;;;22.20;99.90;;;;;;5054151;28;20532;-75
2023/09/28 11:45:43;;;;;;;8.10;5.63;;;22.20;99.90;;;;;;5053719;28;20515;-75
2023/09/28 11:48:11;;;;;;;6.77;6.07;;;22.20;99.90;;;;;;5053624;28;20978;-75
2023/09/28 11:50:40;;;;;;;9.40;5.40;;;22.20;99.90;;;;;;5054017;28;20935;-75
2023/09/28 11:53:10;;;;;;;7.20;4.40;;;22.20;99.90;;;;;;5053758;28;20472;-75
2023/09/28 11:55:40;;;;;;;7.67;5.07;;;22.20;99.90;;;;;;5053882;28;20450;-75
2023/09/28 11:58:09;;;;;;;5.97;5.37;;;22.20;99.90;;;;;;5052210;28;20477;-75
2023/09/28 12:00:37;;;;;;;7.27;5.17;;;22.30;99.90;;;;;;5054057;28;20430;-75
2023/09/28 12:03:06;;;;;;;7.50;4.70;;;22.30;99.90;;;;;;5053541;28;20777;-75
2023/09/28 12:05:35;;;;;;;9.93;5.50;;;22.40;99.90;;;;;;5053501;28;20505;-75
2023/09/28 12:08:03;;;;;;;9.80;4.30;;;22.50;99.90;;;;;;5053670;28;20803;-75
2023/09/28 12:10:33;;;;;;;6.50;3.97;;;22.50;99.90;;;;;;5053361;28;20919;-75
2023/09/28 12:13:01;;;;;;;6.80;4.90;;;22.50;99.90;;;;;;5053044;28;20434;-75
2023/09/28 12:15:29;;;;;;;6.50;4.27;;;22.50;99.90;;;;;;5053315;28;20458;-75
2023/09/28 12:17:57;;;;;;;6.07;4.10;;;22.50;99.90;;;;;;5053341;28;20532;-75
2023/09/28 12:20:26;;;;;;;5.23;3.90;;;22.50;99.90;;;;;;5053189;28;20434;-75
2023/09/28 12:22:54;;;;;;;6.67;3.90;;;22.60;99.90;;;;;;5053302;28;20430;-75
2023/09/28 12:25:24;;;;;;;10.87;5.57;;;22.60;99.90;;;;;;5053389;28;20462;-75
2023/09/28 12:27:54;;;;;;;7.00;3.37;;;22.60;99.90;;;;;;5053188;28;20803;-75
2023/09/28 12:30:22;;;;;;;5.40;3.00;;;22.60;99.90;;;;;;5051907;28;20446;-75
2023/09/28 12:32:52;;;;;;;8.67;3.57;;;22.60;99.90;;;;;;5053903;28;20438;-75
2023/09/28 12:35:21;;;;;;;7.40;3.60;;;22.70;99.90;;;;;;5053467;28;20925;-75
2023/09/28 12:37:50;;;;;;;5.17;3.23;;;22.70;99.90;;;;;;5053344;28;20931;-75
2023/09/28 12:40:18;;;;;;;9.43;3.93;;;22.70;99.90;;;;;;5053248;28;20449;-75
2023/09/28 12:42:46;;;;;;;8.53;3.40;;;22.70;99.90;;;;;;5053222;28;20529;-75
2023/09/28 12:45:16;;;;;;;8.43;3.27;;;22.70;99.90;;;;;;5053580;28;20524;-75
2023/09/28 12:47:44;;;;;;;7.93;3.57;;;22.80;99.90;;;;;;5053056;28;20442;-75
2023/09/28 12:50:12;;;;;;;11.87;3.80;;;22.80;99.90;;;;;;5053389;28;20524;-75
2023/09/28 12:52:41;;;;;;;6.67;3.37;;;22.90;99.90;;;;;;5053389;28;20495;-75